Hodge, Louisiana
Current Conditions -  °F | °C
As of 10:15 PM on Tuesday 27 Jan 2015 (Local Time) from KRSN Reporting Station
Clear Clear  
Wind Chill: 45°   Ceiling: Unl
Heat Index: 45°   Visibility: 10mi
Dew Point: 40°   Wind: 0mph
Humidity: 83%   Direction: NA
Pressure: 30.19"   Gusts: NA
Location:  32.28°N, 92.72°W
Report Text: KRSN 280415Z AUTO 00000KT 10SM CLR 07/05 A3019 RMK AO2 T00740046
Loading
Personal Weather Stations






























Interactive Weather Map New forecast layout! Learn more

10-Day Weather Forecast

Advertisements
Track Severe Weather on mobile